Charlack, Missouri
Current Conditions -  °F | °C
As of 10:51 PM on Thursday 30 Oct 2014 (Local Time) from KSTL Reporting Station
Scattered Clouds Scattered Clouds  
Wind Chill: 10°   Ceiling: Unl
Heat Index: 10°   Visibility: 10mi
Dew Point:   Wind: 6mph
Humidity: 80%   Direction: 330°NNW
Pressure: 30.05"   Gusts: NA
Location:  38.702°N, 90.3628°W
Report Text: KSTL 310351Z 33005KT 10SM FEW044 SCT090 10/07 A3005 RMK AO2 SLP176 T01000067
Loading
Personal Weather Stations






























Interactive Weather Map
Tropical Storm Tracking
New forecast layout! Learn more

10-Day Weather Forecast

Advertisements
Track Severe Weather on mobile